sensor_id;sensor_type;location;lat;lon;timestamp;pressure;altitude;pressure_sealevel;temperature;humidity
3960;BME280;1994;48.640;8.894;2022-08-25T00:02:00;96272.66;;;19.93;69.28
3960;BME280;1994;48.640;8.894;2022-08-25T00:04:27;96271.91;;;19.92;69.47
3960;BME280;1994;48.640;8.894;2022-08-25T00:06:54;96263.72;;;19.94;68.90
3960;BME280;1994;48.640;8.894;2022-08-25T00:09:24;96269.59;;;20.04;67.79
3960;BME280;1994;48.640;8.894;2022-08-25T00:11:50;96256.72;;;20.03;67.94
3960;BME280;1994;48.640;8.894;2022-08-25T00:14:23;96261.38;;;19.92;68.45
3960;BME280;1994;48.640;8.894;2022-08-25T00:16:52;96259.94;;;19.68;69.77
3960;BME280;1994;48.640;8.894;2022-08-25T00:19:22;96258.38;;;19.67;70.58
3960;BME280;1994;48.640;8.894;2022-08-25T00:21:49;96253.13;;;19.67;70.99
3960;BME280;1994;48.640;8.894;2022-08-25T00:24:19;96253.13;;;19.67;71.13
3960;BME280;1994;48.640;8.894;2022-08-25T00:26:51;96258.16;;;19.63;71.29
3960;BME280;1994;48.640;8.894;2022-08-25T00:29:23;96253.75;;;19.59;71.21
3960;BME280;1994;48.640;8.894;2022-08-25T00:31:50;96260.66;;;19.55;71.13
3960;BME280;1994;48.640;8.894;2022-08-25T00:34:27;96258.13;;;19.50;71.52
3960;BME280;1994;48.640;8.894;2022-08-25T00:36:54;96261.22;;;19.52;71.68
3960;BME280;1994;48.640;8.894;2022-08-25T00:39:21;96260.56;;;19.60;71.26
3960;BME280;1994;48.640;8.894;2022-08-25T00:41:50;96260.78;;;19.63;70.55
3960;BME280;1994;48.640;8.894;2022-08-25T00:44:17;96261.91;;;19.76;70.04
3960;BME280;1994;48.640;8.894;2022-08-25T00:46:53;96261.91;;;19.76;69.98
3960;BME280;1994;48.640;8.894;2022-08-25T00:49:48;96261.19;;;19.89;69.25
3960;BME280;1994;48.640;8.894;2022-08-25T00:52:41;96253.69;;;19.96;69.02
3960;BME280;1994;48.640;8.894;2022-08-25T00:55:37;96257.31;;;20.00;68.82
3960;BME280;1994;48.640;8.894;2022-08-25T00:58:09;96251.25;;;19.99;68.71
3960;BME280;1994;48.640;8.894;2022-08-25T01:00:44;96243.66;;;19.98;68.76
3960;BME280;1994;48.640;8.894;2022-08-25T01:03:11;96240.44;;;19.87;68.92
3960;BME280;1994;48.640;8.894;2022-08-25T01:05:39;96246.19;;;19.71;69.87
3960;BME280;1994;48.640;8.894;2022-08-25T01:08:07;96240.41;;;19.55;70.16
3960;BME280;1994;48.640;8.894;2022-08-25T01:10:36;96239.81;;;19.45;70.78
3960;BME280;1994;48.640;8.894;2022-08-25T01:13:38;96237.81;;;19.37;71.43
3960;BME280;1994;48.640;8.894;2022-08-25T01:16:05;96239.81;;;19.45;71.46
3960;BME280;1994;48.640;8.894;2022-08-25T01:18:54;96232.00;;;19.40;71.61
3960;BME280;1994;48.640;8.894;2022-08-25T01:21:28;96235.66;;;19.39;71.69
3960;BME280;1994;48.640;8.894;2022-08-25T01:23:57;96241.50;;;19.36;71.68
3960;BME280;1994;48.640;8.894;2022-08-25T01:26:30;96231.72;;;19.23;72.09
3960;BME280;1994;48.640;8.894;2022-08-25T01:29:03;96239.25;;;19.06;72.99
3960;BME280;1994;48.640;8.894;2022-08-25T01:32:11;96239.13;;;18.97;73.39
3960;BME280;1994;48.640;8.894;2022-08-25T01:34:41;96241.91;;;18.87;74.20
3960;BME280;1994;48.640;8.894;2022-08-25T01:37:09;96244.59;;;18.82;74.54
3960;BME280;1994;48.640;8.894;2022-08-25T01:39:36;96240.38;;;18.81;74.10
3960;BME280;1994;48.640;8.894;2022-08-25T01:45:14;96240.16;;;18.78;73.53
3960;BME280;1994;48.640;8.894;2022-08-25T01:47:49;96237.59;;;18.73;73.53
3960;BME280;1994;48.640;8.894;2022-08-25T01:50:15;96238.16;;;18.70;73.70
3960;BME280;1994;48.640;8.894;2022-08-25T01:52:57;96249.72;;;18.69;73.90
3960;BME280;1994;48.640;8.894;2022-08-25T01:55:24;96247.78;;;18.56;75.01
3960;BME280;1994;48.640;8.894;2022-08-25T01:57:50;96242.09;;;18.49;75.49
3960;BME280;1994;48.640;8.894;2022-08-25T02:00:18;96252.56;;;18.49;75.74
3960;BME280;1994;48.640;8.894;2022-08-25T02:02:44;96247.81;;;18.51;75.45
3960;BME280;1994;48.640;8.894;2022-08-25T02:05:12;96252.03;;;18.52;75.54
3960;BME280;1994;48.640;8.894;2022-08-25T02:07:39;96251.03;;;18.48;75.60
3960;BME280;1994;48.640;8.894;2022-08-25T02:10:11;96253.59;;;18.53;75.28
3960;BME280;1994;48.640;8.894;2022-08-25T02:12:38;96256.22;;;18.53;75.60
3960;BME280;1994;48.640;8.894;2022-08-25T02:15:06;96255.69;;;18.51;75.71
3960;BME280;1994;48.640;8.894;2022-08-25T02:17:34;96253.69;;;18.43;76.48
3960;BME280;1994;48.640;8.894;2022-08-25T02:20:06;96255.88;;;18.36;76.79
3960;BME280;1994;48.640;8.894;2022-08-25T02:22:38;96245.94;;;18.33;77.00
3960;BME280;1994;48.640;8.894;2022-08-25T02:25:05;96240.72;;;18.28;77.37
3960;BME280;1994;48.640;8.894;2022-08-25T02:27:33;96243.34;;;18.28;77.27
3960;BME280;1994;48.640;8.894;2022-08-25T02:29:59;96239.16;;;18.27;77.01
3960;BME280;1994;48.640;8.894;2022-08-25T02:32:28;96238.72;;;18.20;77.32
3960;BME280;1994;48.640;8.894;2022-08-25T02:34:56;96243.94;;;18.20;77.06
3960;BME280;1994;48.640;8.894;2022-08-25T02:37:22;96233.25;;;18.40;76.03
3960;BME280;1994;48.640;8.894;2022-08-25T02:39:48;96232.13;;;18.46;76.05
3960;BME280;1994;48.640;8.894;2022-08-25T02:42:14;96239.41;;;18.54;75.50
3960;BME280;1994;48.640;8.894;2022-08-25T02:44:40;96243.09;;;18.53;75.49
3960;BME280;1994;48.640;8.894;2022-08-25T02:47:06;96237.16;;;18.42;76.38
3960;BME280;1994;48.640;8.894;2022-08-25T02:49:32;96249.22;;;18.43;75.96
3960;BME280;1994;48.640;8.894;2022-08-25T02:51:58;96248.78;;;18.36;75.94
3960;BME280;1994;48.640;8.894;2022-08-25T02:54:28;96255.34;;;18.34;75.87
3960;BME280;1994;48.640;8.894;2022-08-25T02:56:57;96252.75;;;18.29;76.08
3960;BME280;1994;48.640;8.894;2022-08-25T02:59:24;96242.09;;;18.20;76.52
3960;BME280;1994;48.640;8.894;2022-08-25T03:01:50;96241.59;;;18.18;76.45
3960;BME280;1994;48.640;8.894;2022-08-25T03:04:16;96236.59;;;18.22;76.15
3960;BME280;1994;48.640;8.894;2022-08-25T03:06:43;96245.59;;;18.11;76.76
3960;BME280;1994;48.640;8.894;2022-08-25T03:09:09;96231.00;;;18.05;77.28
3960;BME280;1994;48.640;8.894;2022-08-25T03:11:35;96239.69;;;18.00;77.77
3960;BME280;1994;48.640;8.894;2022-08-25T03:14:04;96235.00;;;17.97;77.35
3960;BME280;1994;48.640;8.894;2022-08-25T03:16:30;96229.59;;;17.84;77.76
3960;BME280;1994;48.640;8.894;2022-08-25T03:18:56;96234.31;;;17.87;78.18
3960;BME280;1994;48.640;8.894;2022-08-25T03:21:22;96238.06;;;17.76;78.69
3960;BME280;1994;48.640;8.894;2022-08-25T03:23:49;96247.00;;;17.70;79.12
3960;BME280;1994;48.640;8.894;2022-08-25T03:26:15;96245.00;;;17.62;79.47
3960;BME280;1994;48.640;8.894;2022-08-25T03:29:00;96244.56;;;17.50;79.94
3960;BME280;1994;48.640;8.894;2022-08-25T03:31:31;96238.53;;;17.49;79.84
3960;BME280;1994;48.640;8.894;2022-08-25T03:33:58;96234.94;;;17.40;80.55
3960;BME280;1994;48.640;8.894;2022-08-25T03:36:26;96231.53;;;17.35;80.47
3960;BME280;1994;48.640;8.894;2022-08-25T03:38:53;96236.19;;;17.48;79.48
3960;BME280;1994;48.640;8.894;2022-08-25T03:41:27;96230.94;;;17.48;79.34
3960;BME280;1994;48.640;8.894;2022-08-25T03:43:54;96232.44;;;17.59;78.95
3960;BME280;1994;48.640;8.894;2022-08-25T03:46:29;96218.75;;;17.67;78.57
3960;BME280;1994;48.640;8.894;2022-08-25T03:48:56;96209.84;;;17.68;78.78
3960;BME280;1994;48.640;8.894;2022-08-25T03:51:36;96209.84;;;17.68;78.54
3960;BME280;1994;48.640;8.894;2022-08-25T03:54:04;96206.16;;;17.69;79.35
3960;BME280;1994;48.640;8.894;2022-08-25T03:56:30;96212.47;;;17.68;79.95
3960;BME280;1994;48.640;8.894;2022-08-25T03:58:56;96207.72;;;17.70;79.76
3960;BME280;1994;48.640;8.894;2022-08-25T04:01:22;96207.72;;;17.70;79.73
3960;BME280;1994;48.640;8.894;2022-08-25T04:03:49;96208.81;;;17.64;79.71
3960;BME280;1994;48.640;8.894;2022-08-25T04:06:19;96214.63;;;17.61;79.44
3960;BME280;1994;48.640;8.894;2022-08-25T04:08:45;96221.00;;;17.50;79.60
3960;BME280;1994;48.640;8.894;2022-08-25T04:11:22;96225.25;;;17.41;80.06
3960;BME280;1994;48.640;8.894;2022-08-25T04:13:49;96231.03;;;17.33;80.17
3960;BME280;1994;48.640;8.894;2022-08-25T04:16:30;96223.69;;;17.40;79.06
3960;BME280;1994;48.640;8.894;2022-08-25T04:18:59;96226.84;;;17.32;79.10
3960;BME280;1994;48.640;8.894;2022-08-25T04:21:26;96230.09;;;17.14;79.37
3960;BME280;1994;48.640;8.894;2022-08-25T04:23:54;96222.03;;;17.05;80.38
3960;BME280;1994;48.640;8.894;2022-08-25T04:26:36;96229.22;;;16.90;80.86
3960;BME280;1994;48.640;8.894;2022-08-25T04:29:05;96228.69;;;16.88;81.53
3960;BME280;1994;48.640;8.894;2022-08-25T04:31:32;96234.47;;;16.85;81.61
3960;BME280;1994;48.640;8.894;2022-08-25T04:34:01;96232.31;;;16.92;81.89
3960;BME280;1994;48.640;8.894;2022-08-25T04:36:28;96222.88;;;17.01;81.35
3960;BME280;1994;48.640;8.894;2022-08-25T04:38:54;96222.78;;;17.16;80.25
3960;BME280;1994;48.640;8.894;2022-08-25T04:41:24;96227.94;;;17.26;79.58
3960;BME280;1994;48.640;8.894;2022-08-25T04:43:51;96232.59;;;17.39;78.72
3960;BME280;1994;48.640;8.894;2022-08-25T04:46:21;96226.56;;;17.38;78.62
3960;BME280;1994;48.640;8.894;2022-08-25T04:48:49;96232.13;;;17.27;78.63
3960;BME280;1994;48.640;8.894;2022-08-25T04:51:20;96233.31;;;17.06;79.50
3960;BME280;1994;48.640;8.894;2022-08-25T04:53:49;96238.84;;;16.99;79.75
3960;BME280;1994;48.640;8.894;2022-08-25T04:56:17;96237.81;;;16.95;80.75
3960;BME280;1994;48.640;8.894;2022-08-25T04:58:45;96232.31;;;16.92;80.86
3960;BME280;1994;48.640;8.894;2022-08-25T05:01:15;96231.59;;;16.81;81.63
3960;BME280;1994;48.640;8.894;2022-08-25T05:03:44;96230.25;;;16.94;81.52
3960;BME280;1994;48.640;8.894;2022-08-25T05:06:10;96225.25;;;16.97;82.04
3960;BME280;1994;48.640;8.894;2022-08-25T05:08:36;96217.59;;;17.06;82.57
3960;BME280;1994;48.640;8.894;2022-08-25T05:11:10;96209.78;;;17.01;83.67
3960;BME280;1994;48.640;8.894;2022-08-25T05:13:38;96220.00;;;16.97;83.22
3960;BME280;1994;48.640;8.894;2022-08-25T05:16:05;96217.16;;;16.94;83.02
3960;BME280;1994;48.640;8.894;2022-08-25T05:18:33;96230.78;;;16.91;83.38
3960;BME280;1994;48.640;8.894;2022-08-25T05:21:12;96223.94;;;17.00;82.82
3960;BME280;1994;48.640;8.894;2022-08-25T05:23:42;96213.69;;;17.03;82.70
3960;BME280;1994;48.640;8.894;2022-08-25T05:26:19;96217.03;;;17.09;82.51
3960;BME280;1994;48.640;8.894;2022-08-25T05:28:46;96217.53;;;17.16;82.49
3960;BME280;1994;48.640;8.894;2022-08-25T05:31:14;96213.31;;;17.20;82.23
3960;BME280;1994;48.640;8.894;2022-08-25T05:33:41;96218.53;;;17.20;82.56
3960;BME280;1994;48.640;8.894;2022-08-25T05:36:10;96206.22;;;17.25;83.03
3960;BME280;1994;48.640;8.894;2022-08-25T05:38:37;96212.94;;;17.36;82.61
3960;BME280;1994;48.640;8.894;2022-08-25T05:41:08;96212.38;;;17.44;83.05
3960;BME280;1994;48.640;8.894;2022-08-25T05:43:44;96209.94;;;17.53;82.70
3960;BME280;1994;48.640;8.894;2022-08-25T05:46:12;96215.06;;;17.68;81.77
3960;BME280;1994;48.640;8.894;2022-08-25T05:48:41;96213.09;;;17.83;80.95
3960;BME280;1994;48.640;8.894;2022-08-25T05:51:09;96219.47;;;18.01;79.81
3960;BME280;1994;48.640;8.894;2022-08-25T05:53:37;96217.03;;;18.09;80.23
3960;BME280;1994;48.640;8.894;2022-08-25T05:56:04;96219.28;;;18.21;80.16
3960;BME280;1994;48.640;8.894;2022-08-25T05:58:30;96215.75;;;18.35;79.95
3960;BME280;1994;48.640;8.894;2022-08-25T06:00:58;96219.50;;;18.53;79.25
3960;BME280;1994;48.640;8.894;2022-08-25T06:03:45;96213.50;;;18.71;78.44
3960;BME280;1994;48.640;8.894;2022-08-25T06:06:14;96217.53;;;18.82;77.97
3960;BME280;1994;48.640;8.894;2022-08-25T06:08:42;96216.34;;;18.93;77.47
3960;BME280;1994;48.640;8.894;2022-08-25T06:11:10;96215.00;;;19.14;76.72
3960;BME280;1994;48.640;8.894;2022-08-25T06:13:37;96213.34;;;19.23;76.15
3960;BME280;1994;48.640;8.894;2022-08-25T06:16:04;96220.00;;;19.34;75.92
3960;BME280;1994;48.640;8.894;2022-08-25T06:18:30;96215.50;;;19.53;75.17
3960;BME280;1994;48.640;8.894;2022-08-25T06:20:56;96216.09;;;19.63;75.04
3960;BME280;1994;48.640;8.894;2022-08-25T06:23:21;96213.63;;;19.72;74.66
3960;BME280;1994;48.640;8.894;2022-08-25T06:25:52;96205.47;;;19.87;74.56
3960;BME280;1994;48.640;8.894;2022-08-25T06:28:19;96217.13;;;20.13;73.76
3960;BME280;1994;48.640;8.894;2022-08-25T06:30:48;96218.59;;;20.19;73.12
3960;BME280;1994;48.640;8.894;2022-08-25T06:33:17;96217.63;;;20.42;72.82
3960;BME280;1994;48.640;8.894;2022-08-25T06:35:43;96217.84;;;20.59;72.76
3960;BME280;1994;48.640;8.894;2022-08-25T06:38:10;96221.13;;;20.78;72.12
3960;BME280;1994;48.640;8.894;2022-08-25T06:40:36;96218.88;;;20.85;72.04
3960;BME280;1994;48.640;8.894;2022-08-25T06:43:05;96207.06;;;20.96;71.79
3960;BME280;1994;48.640;8.894;2022-08-25T06:45:33;96209.84;;;21.13;71.54
3960;BME280;1994;48.640;8.894;2022-08-25T06:47:59;96208.56;;;21.24;71.22
3960;BME280;1994;48.640;8.894;2022-08-25T06:50:25;96214.22;;;21.31;70.89
3960;BME280;1994;48.640;8.894;2022-08-25T06:52:51;96209.66;;;21.45;70.05
3960;BME280;1994;48.640;8.894;2022-08-25T06:55:17;96204.63;;;21.57;69.39
3960;BME280;1994;48.640;8.894;2022-08-25T06:57:43;96203.34;;;21.68;69.82
3960;BME280;1994;48.640;8.894;2022-08-25T07:00:09;96193.94;;;21.62;69.60
3960;BME280;1994;48.640;8.894;2022-08-25T07:02:36;96198.59;;;21.78;68.81
3960;BME280;1994;48.640;8.894;2022-08-25T07:05:04;96196.34;;;21.94;68.81
3960;BME280;1994;48.640;8.894;2022-08-25T07:07:31;96195.50;;;22.07;68.17
3960;BME280;1994;48.640;8.894;2022-08-25T07:09:57;96189.31;;;22.20;67.78
3960;BME280;1994;48.640;8.894;2022-08-25T07:12:23;96181.28;;;22.25;67.75
3960;BME280;1994;48.640;8.894;2022-08-25T07:14:49;96187.25;;;22.39;67.49
3960;BME280;1994;48.640;8.894;2022-08-25T07:17:15;96181.34;;;22.42;66.82
3960;BME280;1994;48.640;8.894;2022-08-25T07:19:42;96185.34;;;22.31;67.30
3960;BME280;1994;48.640;8.894;2022-08-25T07:22:07;96192.88;;;22.46;66.91
3960;BME280;1994;48.640;8.894;2022-08-25T07:24:33;96178.59;;;22.47;66.43
3960;BME280;1994;48.640;8.894;2022-08-25T07:26:59;96177.44;;;22.39;67.10
3960;BME280;1994;48.640;8.894;2022-08-25T07:29:27;96177.84;;;22.55;66.95
3960;BME280;1994;48.640;8.894;2022-08-25T07:31:54;96176.47;;;22.66;65.60
3960;BME280;1994;48.640;8.894;2022-08-25T07:34:22;96169.50;;;22.87;64.86
3960;BME280;1994;48.640;8.894;2022-08-25T07:37:06;96174.47;;;23.14;64.81
3960;BME280;1994;48.640;8.894;2022-08-25T07:39:33;96169.84;;;23.28;63.76
3960;BME280;1994;48.640;8.894;2022-08-25T07:41:59;96172.19;;;23.21;64.25
3960;BME280;1994;48.640;8.894;2022-08-25T07:44:28;96176.38;;;23.22;63.70
3960;BME280;1994;48.640;8.894;2022-08-25T07:46:54;96183.53;;;23.38;63.50
3960;BME280;1994;48.640;8.894;2022-08-25T07:49:22;96183.66;;;23.42;63.53
3960;BME280;1994;48.640;8.894;2022-08-25T07:51:50;96188.31;;;23.62;62.34
3960;BME280;1994;48.640;8.894;2022-08-25T07:54:17;96182.69;;;23.80;62.55
3960;BME280;1994;48.640;8.894;2022-08-25T07:56:43;96178.94;;;23.90;61.62
3960;BME280;1994;48.640;8.894;2022-08-25T07:59:09;96172.50;;;24.16;61.07
3960;BME280;1994;48.640;8.894;2022-08-25T08:01:36;96178.72;;;24.49;60.56
3960;BME280;1994;48.640;8.894;2022-08-25T08:04:02;96173.63;;;24.44;60.66
3960;BME280;1994;48.640;8.894;2022-08-25T08:06:28;96180.53;;;24.95;59.38
3960;BME280;1994;48.640;8.894;2022-08-25T08:08:55;96175.41;;;25.10;58.02
3960;BME280;1994;48.640;8.894;2022-08-25T08:11:31;96185.94;;;25.92;55.48
3960;BME280;1994;48.640;8.894;2022-08-25T08:14:02;96178.06;;;27.28;51.89
3960;BME280;1994;48.640;8.894;2022-08-25T08:16:29;96179.91;;;27.94;49.91
3960;BME280;1994;48.640;8.894;2022-08-25T08:18:57;96180.94;;;28.67;48.17
3960;BME280;1994;48.640;8.894;2022-08-25T08:21:31;96179.31;;;28.01;49.03
3960;BME280;1994;48.640;8.894;2022-08-25T08:23:58;96170.38;;;28.71;47.57
3960;BME280;1994;48.640;8.894;2022-08-25T08:26:26;96181.22;;;28.47;47.99
3960;BME280;1994;48.640;8.894;2022-08-25T08:28:53;96178.94;;;28.80;46.84
3960;BME280;1994;48.640;8.894;2022-08-25T08:31:23;96182.88;;;29.55;45.03
3960;BME280;1994;48.640;8.894;2022-08-25T08:33:52;96183.53;;;29.90;43.83
3960;BME280;1994;48.640;8.894;2022-08-25T08:36:18;96180.31;;;30.22;43.01
3960;BME280;1994;48.640;8.894;2022-08-25T08:38:45;96183.97;;;29.73;43.68
3960;BME280;1994;48.640;8.894;2022-08-25T08:50:23;96171.66;;;30.55;42.15
3960;BME280;1994;48.640;8.894;2022-08-25T08:53:21;96185.56;;;30.64;41.21
3960;BME280;1994;48.640;8.894;2022-08-25T08:56:05;96176.94;;;31.00;40.67
3960;BME280;1994;48.640;8.894;2022-08-25T09:01:26;96188.28;;;30.19;41.61
3960;BME280;1994;48.640;8.894;2022-08-25T09:04:40;96179.72;;;30.81;40.97
3960;BME280;1994;48.640;8.894;2022-08-25T09:07:33;96179.84;;;31.47;39.89
3960;BME280;1994;48.640;8.894;2022-08-25T09:10:00;96179.47;;;31.78;39.42
3960;BME280;1994;48.640;8.894;2022-08-25T09:12:33;96181.59;;;31.06;40.12
3960;BME280;1994;48.640;8.894;2022-08-25T09:25:12;96173.81;;;33.38;35.86
3960;BME280;1994;48.640;8.894;2022-08-25T09:27:28;96169.31;;;32.84;35.95
3960;BME280;1994;48.640;8.894;2022-08-25T09:30:08;96166.25;;;33.61;35.03
3960;BME280;1994;48.640;8.894;2022-08-25T09:32:50;96163.41;;;32.65;36.39
3960;BME280;1994;48.640;8.894;2022-08-25T09:35:22;96167.06;;;32.39;36.56
3960;BME280;1994;48.640;8.894;2022-08-25T09:38:10;96166.69;;;32.41;36.25
3960;BME280;1994;48.640;8.894;2022-08-25T09:40:50;96145.44;;;32.69;35.63
3960;BME280;1994;48.640;8.894;2022-08-25T09:46:23;96155.09;;;33.52;35.64
3960;BME280;1994;48.640;8.894;2022-08-25T09:48:55;96154.75;;;33.71;35.21
3960;BME280;1994;48.640;8.894;2022-08-25T09:51:33;96155.91;;;32.88;35.56
3960;BME280;1994;48.640;8.894;2022-08-25T09:57:07;96145.59;;;33.79;34.94
3960;BME280;1994;48.640;8.894;2022-08-25T09:59:36;96146.41;;;34.07;33.63
3960;BME280;1994;48.640;8.894;2022-08-25T10:02:24;96143.31;;;34.02;33.44
3960;BME280;1994;48.640;8.894;2022-08-25T10:04:51;96141.00;;;33.83;33.71
3960;BME280;1994;48.640;8.894;2022-08-25T10:07:38;96130.47;;;33.29;34.65
3960;BME280;1994;48.640;8.894;2022-08-25T10:10:23;96128.66;;;33.75;33.23
3960;BME280;1994;48.640;8.894;2022-08-25T10:12:51;96128.38;;;33.05;34.74
3960;BME280;1994;48.640;8.894;2022-08-25T10:15:23;96124.53;;;33.02;35.09
3960;BME280;1994;48.640;8.894;2022-08-25T10:17:49;96121.91;;;32.48;35.47
3960;BME280;1994;48.640;8.894;2022-08-25T10:20:27;96119.34;;;32.66;34.73
3960;BME280;1994;48.640;8.894;2022-08-25T10:23:11;96120.84;;;32.13;34.55
3960;BME280;1994;48.640;8.894;2022-08-25T10:25:45;96121.84;;;32.38;34.69
3960;BME280;1994;48.640;8.894;2022-08-25T10:34:07;96114.72;;;33.34;34.20
3960;BME280;1994;48.640;8.894;2022-08-25T10:36:51;96094.84;;;33.53;33.77
3960;BME280;1994;48.640;8.894;2022-08-25T10:39:41;96104.06;;;33.59;34.11
3960;BME280;1994;48.640;8.894;2022-08-25T10:45:28;96096.47;;;33.85;34.00
3960;BME280;1994;48.640;8.894;2022-08-25T10:58:21;96072.09;;;32.51;36.00
3960;BME280;1994;48.640;8.894;2022-08-25T11:00:16;96069.78;;;32.46;35.05
3960;BME280;1994;48.640;8.894;2022-08-25T11:03:47;96071.84;;;32.16;36.01
3960;BME280;1994;48.640;8.894;2022-08-25T11:06:22;96068.50;;;32.87;35.51
3960;BME280;1994;48.640;8.894;2022-08-25T11:08:55;96061.91;;;32.16;36.07
3960;BME280;1994;48.640;8.894;2022-08-25T11:11:46;96060.16;;;32.38;35.73
3960;BME280;1994;48.640;8.894;2022-08-25T11:14:53;96059.13;;;32.56;35.02
3960;BME280;1994;48.640;8.894;2022-08-25T11:20:16;96060.91;;;33.10;33.65
3960;BME280;1994;48.640;8.894;2022-08-25T11:22:49;96062.06;;;33.02;33.73
3960;BME280;1994;48.640;8.894;2022-08-25T11:25:41;96051.75;;;33.21;32.53
3960;BME280;1994;48.640;8.894;2022-08-25T11:31:04;96057.13;;;33.18;33.40
3960;BME280;1994;48.640;8.894;2022-08-25T11:33:31;96055.31;;;33.64;33.40
3960;BME280;1994;48.640;8.894;2022-08-25T11:36:35;96048.56;;;32.88;33.75
3960;BME280;1994;48.640;8.894;2022-08-25T11:48:27;96047.84;;;33.01;33.75
3960;BME280;1994;48.640;8.894;2022-08-25T11:54:35;96047.22;;;31.20;36.55
3960;BME280;1994;48.640;8.894;2022-08-25T11:57:16;96037.25;;;30.58;37.70
3960;BME280;1994;48.640;8.894;2022-08-25T12:02:53;96036.72;;;31.41;36.21
3960;BME280;1994;48.640;8.894;2022-08-25T12:08:07;96030.06;;;32.69;34.05
3960;BME280;1994;48.640;8.894;2022-08-25T12:11:04;96032.16;;;33.07;33.68
3960;BME280;1994;48.640;8.894;2022-08-25T12:13:50;96027.88;;;32.85;33.86
3960;BME280;1994;48.640;8.894;2022-08-25T12:19:23;96019.47;;;32.97;34.07
3960;BME280;1994;48.640;8.894;2022-08-25T12:21:50;96013.00;;;33.12;33.48
3960;BME280;1994;48.640;8.894;2022-08-25T12:35:59;96009.34;;;32.66;33.40
3960;BME280;1994;48.640;8.894;2022-08-25T12:41:11;96011.00;;;32.91;33.66
3960;BME280;1994;48.640;8.894;2022-08-25T12:43:47;96006.50;;;33.20;32.48
3960;BME280;1994;48.640;8.894;2022-08-25T12:49:30;95999.16;;;32.99;33.06
3960;BME280;1994;48.640;8.894;2022-08-25T12:52:32;96009.47;;;32.94;33.24
3960;BME280;1994;48.640;8.894;2022-08-25T12:55:03;96000.06;;;33.94;32.17
3960;BME280;1994;48.640;8.894;2022-08-25T13:00:27;96005.81;;;33.93;31.08
3960;BME280;1994;48.640;8.894;2022-08-25T13:03:31;96006.59;;;33.79;31.63
3960;BME280;1994;48.640;8.894;2022-08-25T13:09:29;95999.91;;;34.82;29.60
3960;BME280;1994;48.640;8.894;2022-08-25T13:14:56;95995.84;;;33.93;31.32
3960;BME280;1994;48.640;8.894;2022-08-25T13:19:51;95988.88;;;34.38;30.60
3960;BME280;1994;48.640;8.894;2022-08-25T13:22:17;95990.38;;;33.09;32.36
3960;BME280;1994;48.640;8.894;2022-08-25T13:24:47;95981.94;;;33.14;31.84
3960;BME280;1994;48.640;8.894;2022-08-25T13:27:23;95975.09;;;33.66;31.46
3960;BME280;1994;48.640;8.894;2022-08-25T13:29:55;95982.66;;;34.58;29.96
3960;BME280;1994;48.640;8.894;2022-08-25T13:32:35;95979.56;;;34.67;29.74
3960;BME280;1994;48.640;8.894;2022-08-25T13:37:40;95973.25;;;35.05;29.28
3960;BME280;1994;48.640;8.894;2022-08-25T13:40:22;95971.28;;;33.95;30.42
3960;BME280;1994;48.640;8.894;2022-08-25T13:43:02;95978.19;;;33.40;31.53
3960;BME280;1994;48.640;8.894;2022-08-25T13:45:41;95974.81;;;32.54;32.79
3960;BME280;1994;48.640;8.894;2022-08-25T13:48:30;95972.69;;;32.91;32.40
3960;BME280;1994;48.640;8.894;2022-08-25T13:53:59;95972.56;;;32.63;31.97
3960;BME280;1994;48.640;8.894;2022-08-25T13:56:38;95970.50;;;31.78;33.43
3960;BME280;1994;48.640;8.894;2022-08-25T13:59:22;95964.50;;;31.48;34.68
3960;BME280;1994;48.640;8.894;2022-08-25T14:01:49;95966.84;;;31.13;35.48
3960;BME280;1994;48.640;8.894;2022-08-25T14:09:57;95956.78;;;30.37;37.38
3960;BME280;1994;48.640;8.894;2022-08-25T14:12:46;95948.69;;;30.63;37.09
3960;BME280;1994;48.640;8.894;2022-08-25T14:15:27;95948.31;;;30.94;35.83
3960;BME280;1994;48.640;8.894;2022-08-25T14:18:18;95951.97;;;30.79;36.58
3960;BME280;1994;48.640;8.894;2022-08-25T14:20:49;95945.09;;;30.78;36.30
3960;BME280;1994;48.640;8.894;2022-08-25T14:23:27;95942.97;;;30.94;36.22
3960;BME280;1994;48.640;8.894;2022-08-25T14:25:55;95947.34;;;30.76;36.00
3960;BME280;1994;48.640;8.894;2022-08-25T14:28:27;95945.13;;;30.81;35.98
3960;BME280;1994;48.640;8.894;2022-08-25T14:31:08;95947.00;;;30.48;36.32
3960;BME280;1994;48.640;8.894;2022-08-25T14:33:49;95946.47;;;30.68;36.54
3960;BME280;1994;48.640;8.894;2022-08-25T14:36:16;95940.53;;;30.82;36.10
3960;BME280;1994;48.640;8.894;2022-08-25T14:38:42;95946.28;;;30.51;36.59
3960;BME280;1994;48.640;8.894;2022-08-25T14:41:08;95945.59;;;30.28;36.72
3960;BME280;1994;48.640;8.894;2022-08-25T14:43:33;95935.00;;;30.09;37.16
3960;BME280;1994;48.640;8.894;2022-08-25T14:46:06;95937.59;;;30.02;37.04
3960;BME280;1994;48.640;8.894;2022-08-25T14:48:45;95926.31;;;29.86;37.29
3960;BME280;1994;48.640;8.894;2022-08-25T14:51:14;95921.25;;;30.07;36.85
3960;BME280;1994;48.640;8.894;2022-08-25T14:53:41;95915.91;;;30.07;36.82
3960;BME280;1994;48.640;8.894;2022-08-25T14:56:08;95920.53;;;30.10;37.42
3960;BME280;1994;48.640;8.894;2022-08-25T14:58:34;95924.75;;;30.11;37.09
3960;BME280;1994;48.640;8.894;2022-08-25T15:01:00;95926.59;;;30.07;36.98
3960;BME280;1994;48.640;8.894;2022-08-25T15:03:37;95915.91;;;30.07;37.60
3960;BME280;1994;48.640;8.894;2022-08-25T15:06:04;95915.13;;;30.06;37.70
3960;BME280;1994;48.640;8.894;2022-08-25T15:08:30;95915.63;;;29.86;38.02
3960;BME280;1994;48.640;8.894;2022-08-25T15:11:15;95915.84;;;29.74;38.59
3960;BME280;1994;48.640;8.894;2022-08-25T15:13:41;95917.94;;;29.61;38.23
3960;BME280;1994;48.640;8.894;2022-08-25T15:16:20;95911.50;;;29.66;38.60
3960;BME280;1994;48.640;8.894;2022-08-25T15:18:47;95919.53;;;29.66;38.27
3960;BME280;1994;48.640;8.894;2022-08-25T15:21:13;95914.47;;;29.61;37.93
3960;BME280;1994;48.640;8.894;2022-08-25T15:23:39;95903.09;;;29.64;38.65
3960;BME280;1994;48.640;8.894;2022-08-25T15:26:05;95905.72;;;29.38;38.79
3960;BME280;1994;48.640;8.894;2022-08-25T15:28:33;95897.91;;;29.26;38.92
3960;BME280;1994;48.640;8.894;2022-08-25T15:30:59;95904.38;;;29.25;39.09
3960;BME280;1994;48.640;8.894;2022-08-25T15:33:25;95903.94;;;29.23;39.09
3960;BME280;1994;48.640;8.894;2022-08-25T15:35:54;95895.34;;;29.33;39.01
3960;BME280;1994;48.640;8.894;2022-08-25T15:38:23;95897.72;;;29.38;38.81
3960;BME280;1994;48.640;8.894;2022-08-25T15:40:49;95899.78;;;29.48;38.19
3960;BME280;1994;48.640;8.894;2022-08-25T15:43:15;95899.66;;;29.41;38.79
3960;BME280;1994;48.640;8.894;2022-08-25T15:45:41;95898.59;;;29.45;38.19